createdAt,value
2023-05-11T00:00:47.444Z,99.90
2023-05-11T00:03:15.349Z,99.90
2023-05-11T00:05:43.216Z,99.90
2023-05-11T00:08:10.902Z,99.90
2023-05-11T00:10:38.607Z,99.90
2023-05-11T00:13:06.739Z,99.90
2023-05-11T00:15:34.526Z,99.90
2023-05-11T00:18:03.593Z,99.90
2023-05-11T00:20:31.275Z,99.90
2023-05-11T00:22:58.987Z,99.90
2023-05-11T00:25:26.866Z,99.90
2023-05-11T00:27:54.613Z,99.90
2023-05-11T00:30:22.608Z,99.90
2023-05-11T00:32:52.003Z,99.90
2023-05-11T00:35:21.420Z,99.90
2023-05-11T00:37:49.121Z,99.90
2023-05-11T00:40:17.183Z,99.90
2023-05-11T00:42:45.152Z,99.90
2023-05-11T00:45:12.910Z,99.90
2023-05-11T00:47:41.481Z,99.90
2023-05-11T00:50:10.170Z,99.90
2023-05-11T00:52:39.238Z,99.90
2023-05-11T00:55:08.419Z,99.90
2023-05-11T00:57:36.161Z,99.90
2023-05-11T01:00:05.535Z,99.90
2023-05-11T01:02:33.576Z,99.90
2023-05-11T01:05:01.871Z,99.90
2023-05-11T01:07:35.712Z,99.90
2023-05-11T01:10:15.305Z,99.90
2023-05-11T01:12:52.659Z,99.90
2023-05-11T01:15:28.579Z,99.90
2023-05-11T01:18:02.103Z,99.90
2023-05-11T01:20:31.640Z,99.90
2023-05-11T01:23:34.978Z,99.90
2023-05-11T01:26:12.453Z,99.90
2023-05-11T01:29:03.297Z,99.90
2023-05-11T01:31:34.825Z,99.90
2023-05-11T01:34:05.755Z,99.90
2023-05-11T01:36:35.990Z,99.90
2023-05-11T01:39:06.465Z,99.90
2023-05-11T01:41:35.910Z,99.90
2023-05-11T01:44:06.320Z,99.90
2023-05-11T01:46:35.838Z,99.90
2023-05-11T01:49:07.578Z,99.90
2023-05-11T01:51:38.011Z,99.90
2023-05-11T01:54:08.275Z,99.90
2023-05-11T01:56:38.159Z,99.90
2023-05-11T01:59:06.727Z,99.90
2023-05-11T02:01:36.638Z,99.90
2023-05-11T02:04:06.684Z,99.90
2023-05-11T02:06:36.672Z,99.90
2023-05-11T02:09:05.189Z,99.90
2023-05-11T02:11:34.547Z,99.90
2023-05-11T02:14:04.247Z,99.90
2023-05-11T02:19:31.551Z,99.90
2023-05-11T02:22:00.702Z,99.90
2023-05-11T02:24:30.592Z,99.90
2023-05-11T02:26:58.817Z,99.90
2023-05-11T02:29:26.796Z,99.90
2023-05-11T02:31:58.155Z,99.90
2023-05-11T02:34:30.544Z,99.90
2023-05-11T02:37:04.018Z,99.90
2023-05-11T02:39:35.947Z,99.90
2023-05-11T02:42:10.204Z,99.90
2023-05-11T02:44:39.871Z,99.90
2023-05-11T02:47:10.790Z,99.90
2023-05-11T02:49:40.646Z,99.90
2023-05-11T02:52:09.333Z,99.90
2023-05-11T02:54:39.892Z,99.90
2023-05-11T02:57:07.915Z,99.90
2023-05-11T02:59:35.879Z,99.90
2023-05-11T03:02:03.991Z,99.90
2023-05-11T03:04:32.185Z,99.90
2023-05-11T03:07:01.447Z,99.90
2023-05-11T03:09:29.553Z,99.90
2023-05-11T03:11:58.616Z,99.90
2023-05-11T03:14:27.205Z,99.90
2023-05-11T03:16:56.551Z,99.90
2023-05-11T03:19:24.717Z,99.90
2023-05-11T03:21:53.710Z,99.90
2023-05-11T03:24:23.300Z,99.90
2023-05-11T03:26:52.582Z,99.90
2023-05-11T03:29:21.887Z,99.90
2023-05-11T03:31:51.203Z,99.90
2023-05-11T03:34:19.252Z,99.90
2023-05-11T03:36:49.914Z,99.90
2023-05-11T03:39:18.572Z,99.90
2023-05-11T03:41:51.246Z,99.90
2023-05-11T03:44:20.684Z,99.90
2023-05-11T03:46:50.380Z,99.90
2023-05-11T03:49:19.069Z,99.90
2023-05-11T03:51:48.386Z,99.90
2023-05-11T03:54:16.628Z,99.90
2023-05-11T03:56:44.318Z,99.90
2023-05-11T03:59:17.210Z,99.90
2023-05-11T04:01:45.375Z,99.90
2023-05-11T04:04:13.141Z,99.90
2023-05-11T04:06:40.911Z,99.90
2023-05-11T04:09:08.700Z,99.90
2023-05-11T04:11:37.932Z,99.90
2023-05-11T04:14:06.113Z,99.90
2023-05-11T04:16:35.306Z,99.90
2023-05-11T04:19:03.132Z,99.90
2023-05-11T04:21:31.043Z,99.90
2023-05-11T04:23:58.768Z,99.90
2023-05-11T04:26:26.681Z,99.90
2023-05-11T04:28:54.474Z,99.90
2023-05-11T04:31:22.349Z,99.90
2023-05-11T04:33:51.371Z,99.90
2023-05-11T04:36:20.250Z,99.90
2023-05-11T04:38:47.958Z,99.90
2023-05-11T04:41:15.875Z,99.90
2023-05-11T04:43:43.561Z,99.90
2023-05-11T04:46:11.315Z,99.90
2023-05-11T04:48:39.007Z,99.90
2023-05-11T04:51:08.292Z,99.90
2023-05-11T04:53:35.994Z,99.90
2023-05-11T04:56:03.721Z,99.90
2023-05-11T04:58:31.501Z,99.90
2023-05-11T05:00:59.258Z,99.90
2023-05-11T05:03:27.166Z,99.90
2023-05-11T05:05:54.862Z,99.90
2023-05-11T05:08:23.869Z,99.90
2023-05-11T05:10:51.583Z,99.90
2023-05-11T05:13:19.261Z,99.90
2023-05-11T05:15:47.100Z,99.90
2023-05-11T05:18:14.857Z,99.90
2023-05-11T05:20:42.540Z,99.90
2023-05-11T05:23:10.480Z,99.90
2023-05-11T05:25:39.509Z,99.90
2023-05-11T05:28:07.244Z,99.90
2023-05-11T05:30:36.218Z,99.90
2023-05-11T05:33:04.067Z,99.90
2023-05-11T05:35:31.798Z,99.90
2023-05-11T05:37:59.491Z,99.90
2023-05-11T05:40:27.277Z,99.90
2023-05-11T05:42:56.342Z,99.90
2023-05-11T05:45:24.027Z,99.90
2023-05-11T05:47:51.960Z,99.90
2023-05-11T05:50:20.076Z,99.90
2023-05-11T05:52:47.912Z,99.90
2023-05-11T05:55:15.595Z,99.90
2023-05-11T05:57:43.501Z,99.90
2023-05-11T06:00:13.995Z,99.90
2023-05-11T06:02:42.325Z,99.90
2023-05-11T06:05:11.020Z,99.90
2023-05-11T06:07:39.039Z,99.90
2023-05-11T06:10:07.494Z,99.90
2023-05-11T06:12:35.177Z,99.90
2023-05-11T06:15:02.993Z,99.90
2023-05-11T06:17:32.045Z,99.90
2023-05-11T06:19:59.799Z,99.90
2023-05-11T06:22:27.534Z,99.90
2023-05-11T06:24:55.293Z,99.90
2023-05-11T06:27:22.980Z,99.90
2023-05-11T06:29:50.741Z,99.90
2023-05-11T06:32:18.455Z,99.90
2023-05-11T06:34:47.496Z,99.90
2023-05-11T06:37:20.237Z,99.90
2023-05-11T06:39:48.044Z,99.90
2023-05-11T06:42:15.811Z,99.90
2023-05-11T06:44:43.511Z,99.90
2023-05-11T06:47:11.436Z,99.90
2023-05-11T06:49:39.150Z,99.90
2023-05-11T06:52:08.787Z,99.90
2023-05-11T06:54:36.699Z,99.90
2023-05-11T06:57:04.567Z,99.90
2023-05-11T06:59:32.390Z,99.90
2023-05-11T07:02:00.238Z,99.90
2023-05-11T07:04:29.634Z,99.90
2023-05-11T07:06:57.700Z,99.90
2023-05-11T07:09:27.133Z,99.90
2023-05-11T07:11:54.924Z,99.90
2023-05-11T07:14:22.623Z,99.90
2023-05-11T07:16:52.660Z,99.90
2023-05-11T07:19:20.529Z,99.90
2023-05-11T07:21:48.361Z,99.90
2023-05-11T07:24:16.047Z,99.90
2023-05-11T07:26:45.088Z,99.90
2023-05-11T07:29:12.766Z,99.90
2023-05-11T07:31:40.534Z,99.90
2023-05-11T07:34:08.400Z,99.90
2023-05-11T07:36:36.093Z,99.90
2023-05-11T07:39:03.853Z,99.90
2023-05-11T07:41:31.659Z,99.90
2023-05-11T07:44:02.652Z,99.90
2023-05-11T07:46:30.422Z,99.90
2023-05-11T07:49:11.403Z,99.90
2023-05-11T07:51:43.369Z,99.90
2023-05-11T07:54:11.134Z,99.90
2023-05-11T07:56:38.930Z,99.90
2023-05-11T07:59:08.000Z,99.90
2023-05-11T08:01:35.836Z,99.90
2023-05-11T08:04:03.552Z,99.90
2023-05-11T08:06:31.340Z,99.90
2023-05-11T08:08:59.508Z,99.90
2023-05-11T08:11:27.517Z,99.90
2023-05-11T08:13:55.226Z,99.90
2023-05-11T08:16:24.299Z,99.90
2023-05-11T08:18:52.058Z,99.90
2023-05-11T08:21:19.815Z,99.90
2023-05-11T08:23:47.563Z,99.90
2023-05-11T08:26:15.238Z,99.90
2023-05-11T08:28:43.160Z,99.90
2023-05-11T08:31:11.915Z,99.90
2023-05-11T08:33:41.033Z,99.90
2023-05-11T08:36:09.479Z,99.90
2023-05-11T08:38:37.311Z,99.90
2023-05-11T08:41:07.471Z,99.90
2023-05-11T08:43:36.595Z,99.90
2023-05-11T08:46:07.264Z,99.90
2023-05-11T08:48:35.930Z,99.90
2023-05-11T08:51:05.476Z,99.90
2023-05-11T08:53:33.575Z,99.90
2023-05-11T08:56:03.995Z,99.90
2023-05-11T08:58:32.942Z,99.90
2023-05-11T09:01:01.025Z,99.90
2023-05-11T09:03:31.513Z,99.90
2023-05-11T09:06:00.943Z,99.90
2023-05-11T09:08:32.459Z,99.90
2023-05-11T09:11:00.879Z,99.90
2023-05-11T09:13:28.658Z,99.90
2023-05-11T09:15:56.462Z,99.90
2023-05-11T09:18:24.210Z,99.90
2023-05-11T09:20:52.326Z,99.90
2023-05-11T09:23:24.993Z,99.90
2023-05-11T09:25:54.049Z,99.90
2023-05-11T09:28:27.013Z,99.90
2023-05-11T09:30:55.350Z,99.90
2023-05-11T09:33:24.775Z,99.90
2023-05-11T09:35:52.890Z,99.90
2023-05-11T09:38:23.038Z,99.90
2023-05-11T09:40:56.249Z,99.90
2023-05-11T09:43:25.803Z,99.90
2023-05-11T09:45:54.959Z,99.90
2023-05-11T09:48:31.623Z,99.90
2023-05-11T09:51:04.869Z,99.90
2023-05-11T09:53:37.821Z,99.90
2023-05-11T09:56:07.584Z,99.90
2023-05-11T09:58:49.753Z,99.90
2023-05-11T10:01:18.697Z,99.90
2023-05-11T10:03:51.757Z,99.90
2023-05-11T10:06:20.434Z,99.90
2023-05-11T10:08:48.789Z,99.90
2023-05-11T10:11:18.087Z,99.90
2023-05-11T10:13:46.605Z,99.90
2023-05-11T10:16:17.011Z,99.90
2023-05-11T10:18:46.853Z,99.90
2023-05-11T10:21:16.537Z,99.90
2023-05-11T10:23:44.429Z,99.90
2023-05-11T10:26:12.824Z,99.90
2023-05-11T10:28:42.222Z,99.90
2023-05-11T10:31:10.779Z,99.90
2023-05-11T10:33:39.049Z,99.90
2023-05-11T10:36:08.877Z,99.90
2023-05-11T10:38:36.737Z,99.90
2023-05-11T10:41:24.161Z,99.90
2023-05-11T10:44:16.424Z,99.90
2023-05-11T10:47:02.836Z,99.90
2023-05-11T10:49:50.160Z,99.90
2023-05-11T10:52:44.675Z,99.90
2023-05-11T10:55:21.874Z,99.90
2023-05-11T10:58:07.485Z,99.90
2023-05-11T11:01:15.302Z,99.90
2023-05-11T11:03:43.123Z,99.90
2023-05-11T11:06:23.874Z,99.90
2023-05-11T11:08:59.250Z,99.90
2023-05-11T11:11:35.211Z,99.90
2023-05-11T11:14:05.789Z,99.80
2023-05-11T11:16:35.191Z,99.50
2023-05-11T11:19:36.874Z,99.50
2023-05-11T11:22:04.669Z,99.70
2023-05-11T11:24:53.159Z,99.60
2023-05-11T11:27:41.003Z,99.60
2023-05-11T11:30:20.147Z,99.60
2023-05-11T11:32:50.240Z,99.60
2023-05-11T11:35:48.618Z,99.50
2023-05-11T11:38:19.057Z,99.40
2023-05-11T11:40:52.518Z,99.30
2023-05-11T11:43:23.042Z,99.20
2023-05-11T11:45:55.692Z,98.90
2023-05-11T11:48:31.997Z,99.10
2023-05-11T11:51:05.945Z,98.90
2023-05-11T11:54:07.722Z,98.90
2023-05-11T11:56:43.514Z,99.00
2023-05-11T11:59:13.941Z,98.80
2023-05-11T12:01:44.138Z,98.90
2023-05-11T12:04:50.854Z,98.60
2023-05-11T12:07:22.432Z,98.70
2023-05-11T12:09:52.753Z,98.60
2023-05-11T12:12:21.338Z,98.40
2023-05-11T12:14:52.403Z,98.30
2023-05-11T12:17:28.209Z,98.30
2023-05-11T12:19:56.567Z,98.10
2023-05-11T12:22:26.878Z,97.90
2023-05-11T12:24:59.542Z,97.70
2023-05-11T12:27:28.089Z,97.70
2023-05-11T12:29:57.139Z,97.80
2023-05-11T12:32:29.425Z,97.60
2023-05-11T12:35:01.993Z,97.80
2023-05-11T12:37:31.892Z,97.30
2023-05-11T12:40:00.337Z,97.70
2023-05-11T12:42:28.198Z,97.80
2023-05-11T12:44:57.058Z,97.80
2023-05-11T12:47:24.964Z,97.90
2023-05-11T12:49:52.753Z,97.70
2023-05-11T12:52:20.694Z,97.80
2023-05-11T12:54:52.257Z,97.80
2023-05-11T12:57:26.813Z,97.40
2023-05-11T13:00:10.033Z,97.30
2023-05-11T13:02:45.952Z,97.60
2023-05-11T13:05:14.884Z,97.50
2023-05-11T13:07:43.997Z,97.30
2023-05-11T13:10:13.829Z,97.50
2023-05-11T13:12:52.181Z,97.20
2023-05-11T13:15:21.728Z,97.30
2023-05-11T13:17:56.058Z,97.20
2023-05-11T13:20:26.665Z,97.40
2023-05-11T13:23:04.917Z,97.50
2023-05-11T13:25:34.777Z,97.60
2023-05-11T13:28:02.561Z,97.50
2023-05-11T13:30:30.867Z,97.40
2023-05-11T13:33:00.289Z,97.30
2023-05-11T13:35:28.171Z,97.40
2023-05-11T13:37:56.183Z,97.30
2023-05-11T13:40:24.040Z,97.30
2023-05-11T13:42:53.133Z,97.40
2023-05-11T13:45:20.915Z,97.30
2023-05-11T13:47:48.660Z,97.30
2023-05-11T13:50:16.766Z,97.40
2023-05-11T13:52:44.475Z,97.30
2023-05-11T13:55:12.203Z,97.10
2023-05-11T13:57:40.036Z,97.10
2023-05-11T14:00:11.674Z,97.20
2023-05-11T14:02:39.599Z,97.20
2023-05-11T14:05:08.622Z,96.90
2023-05-11T14:07:47.092Z,96.90
2023-05-11T14:10:15.556Z,96.80
2023-05-11T14:12:43.626Z,96.80
2023-05-11T14:15:13.269Z,96.90
2023-05-11T14:17:42.721Z,96.70
2023-05-11T14:20:11.991Z,96.90
2023-05-11T14:22:40.006Z,96.60
2023-05-11T14:25:08.874Z,96.60
2023-05-11T14:27:36.859Z,96.60
2023-05-11T14:30:04.922Z,96.70
2023-05-11T14:32:34.046Z,96.60
2023-05-11T14:35:02.054Z,96.40
2023-05-11T14:37:29.970Z,96.40
2023-05-11T14:39:57.695Z,96.40
2023-05-11T14:42:25.415Z,96.50
2023-05-11T14:44:53.492Z,96.40
2023-05-11T14:47:21.220Z,96.30
2023-05-11T14:49:50.401Z,96.30
2023-05-11T14:52:18.182Z,96.40
2023-05-11T14:54:45.873Z,96.50
2023-05-11T14:57:14.132Z,96.40
2023-05-11T14:59:55.401Z,96.30
2023-05-11T15:02:27.315Z,96.40
2023-05-11T15:04:56.543Z,96.60
2023-05-11T15:07:24.295Z,96.40
2023-05-11T15:09:52.064Z,96.40
2023-05-11T15:12:19.774Z,96.40
2023-05-11T15:14:47.482Z,96.60
2023-05-11T15:17:15.160Z,96.50
2023-05-11T15:19:42.968Z,96.60
2023-05-11T15:22:12.092Z,96.60
2023-05-11T15:24:39.797Z,96.70
2023-05-11T15:27:08.170Z,96.80
2023-05-11T15:29:35.923Z,96.50
2023-05-11T15:32:03.809Z,96.50
2023-05-11T15:37:11.166Z,96.80
2023-05-11T15:39:40.978Z,96.90
2023-05-11T15:42:09.068Z,97.10
2023-05-11T15:44:37.051Z,97.20
2023-05-11T15:47:06.002Z,97.30
2023-05-11T15:49:33.777Z,97.40
2023-05-11T15:52:01.812Z,97.60
2023-05-11T15:54:29.648Z,97.70
2023-05-11T15:56:58.716Z,97.80
2023-05-11T15:59:26.631Z,97.80
2023-05-11T16:01:54.727Z,97.90
2023-05-11T16:04:22.480Z,97.90
2023-05-11T16:06:50.186Z,98.00
2023-05-11T16:09:18.193Z,97.90
2023-05-11T16:11:45.967Z,98.00
2023-05-11T16:14:15.006Z,98.10
2023-05-11T16:16:43.204Z,98.40
2023-05-11T16:19:11.096Z,98.20
2023-05-11T16:21:39.069Z,98.30
2023-05-11T16:24:07.827Z,98.30
2023-05-11T16:26:35.837Z,98.30
2023-05-11T16:29:03.552Z,98.40
2023-05-11T16:31:32.681Z,98.50
2023-05-11T16:34:00.446Z,98.60
2023-05-11T16:36:29.641Z,98.50
2023-05-11T16:38:57.354Z,98.50
2023-05-11T16:41:27.942Z,98.60
2023-05-11T16:43:55.707Z,98.60
2023-05-11T16:46:23.456Z,98.60
2023-05-11T16:48:52.675Z,98.80
2023-05-11T16:51:20.538Z,98.80
2023-05-11T16:53:48.335Z,98.90
2023-05-11T16:56:16.670Z,98.90
2023-05-11T16:58:44.434Z,98.90
2023-05-11T17:01:12.429Z,98.90
2023-05-11T17:03:40.272Z,98.90
2023-05-11T17:06:11.461Z,99.00
2023-05-11T17:08:39.174Z,99.10
2023-05-11T17:11:06.903Z,99.10
2023-05-11T17:13:34.673Z,99.10
2023-05-11T17:16:02.471Z,99.10
2023-05-11T17:18:30.240Z,99.10
2023-05-11T17:20:58.169Z,99.00
2023-05-11T17:23:27.218Z,99.10
2023-05-11T17:25:55.190Z,99.10
2023-05-11T17:28:22.942Z,99.10
2023-05-11T17:30:52.469Z,99.20
2023-05-11T17:33:20.423Z,99.20
2023-05-11T17:35:48.179Z,99.20
2023-05-11T17:38:15.957Z,99.30
2023-05-11T17:40:45.313Z,99.30
2023-05-11T17:43:13.025Z,99.30
2023-05-11T17:45:40.784Z,99.40
2023-05-11T17:48:08.605Z,99.30
2023-05-11T17:50:37.404Z,99.30
2023-05-11T17:53:05.291Z,99.40
2023-05-11T17:55:35.849Z,99.50
2023-05-11T17:58:04.923Z,99.50
2023-05-11T18:00:33.283Z,99.50
2023-05-11T18:03:01.025Z,99.60
2023-05-11T18:05:40.283Z,99.60
2023-05-11T18:08:15.090Z,99.70
2023-05-11T18:10:42.846Z,99.80
2023-05-11T18:13:12.850Z,99.80
2023-05-11T18:15:41.034Z,99.80
2023-05-11T18:18:09.307Z,99.90
2023-05-11T18:20:38.775Z,99.90
2023-05-11T18:23:06.712Z,99.90
2023-05-11T18:25:34.445Z,99.90
2023-05-11T18:28:02.364Z,99.90
2023-05-11T18:30:31.631Z,99.90
2023-05-11T18:32:59.614Z,99.90
2023-05-11T18:35:27.367Z,99.90
2023-05-11T18:37:55.310Z,99.90
2023-05-11T18:40:23.412Z,99.90
2023-05-11T18:42:53.646Z,99.90
2023-05-11T18:45:21.797Z,99.90
2023-05-11T18:47:51.726Z,99.90
2023-05-11T18:50:20.219Z,99.90
2023-05-11T18:52:48.287Z,99.90
2023-05-11T18:55:15.983Z,99.90
2023-05-11T18:57:43.698Z,99.90
2023-05-11T19:00:12.278Z,99.90
2023-05-11T19:02:40.155Z,99.90
2023-05-11T19:05:10.463Z,99.90
2023-05-11T19:07:38.196Z,99.90
2023-05-11T19:10:07.366Z,99.90
2023-05-11T19:12:35.128Z,99.90
2023-05-11T19:15:04.205Z,99.90
2023-05-11T19:17:31.928Z,99.90
2023-05-11T19:19:59.636Z,99.90
2023-05-11T19:22:28.673Z,99.90
2023-05-11T19:24:56.522Z,99.90
2023-05-11T19:27:24.239Z,99.90
2023-05-11T19:29:51.947Z,99.90
2023-05-11T19:32:19.734Z,99.90
2023-05-11T19:34:47.651Z,99.90
2023-05-11T19:37:15.427Z,99.90
2023-05-11T19:39:44.876Z,99.90
2023-05-11T19:42:12.791Z,99.90
2023-05-11T19:44:43.385Z,99.90
2023-05-11T19:47:11.380Z,99.90
2023-05-11T19:49:39.203Z,99.90
2023-05-11T19:52:07.335Z,99.90
2023-05-11T19:54:35.388Z,99.90
2023-05-11T19:57:04.622Z,99.90
2023-05-11T19:59:33.322Z,99.90
2023-05-11T20:02:01.496Z,99.90
2023-05-11T20:04:29.402Z,99.90
2023-05-11T20:06:57.338Z,99.90
2023-05-11T20:09:25.928Z,99.90
2023-05-11T20:11:53.795Z,99.90
2023-05-11T20:14:23.073Z,99.90
2023-05-11T20:16:50.781Z,99.90
2023-05-11T20:19:18.500Z,99.90
2023-05-11T20:21:46.544Z,99.90
2023-05-11T20:24:14.262Z,99.90
2023-05-11T20:26:42.006Z,99.90
2023-05-11T20:29:10.236Z,99.90
2023-05-11T20:31:39.310Z,99.90
2023-05-11T20:34:07.328Z,99.90
2023-05-11T20:36:35.224Z,99.90
2023-05-11T20:39:02.989Z,99.90
2023-05-11T20:41:30.860Z,99.90
2023-05-11T20:43:58.550Z,99.90
2023-05-11T20:46:26.302Z,99.90
2023-05-11T20:48:55.415Z,99.90
2023-05-11T20:51:23.336Z,99.90
2023-05-11T20:53:51.468Z,99.90
2023-05-11T20:56:19.223Z,99.90
2023-05-11T20:58:47.354Z,99.90
2023-05-11T21:01:15.147Z,99.90
2023-05-11T21:03:42.992Z,99.90
2023-05-11T21:06:12.188Z,99.90
2023-05-11T21:08:39.959Z,99.90
2023-05-11T21:11:07.674Z,99.90
2023-05-11T21:13:36.078Z,99.90
2023-05-11T21:16:03.883Z,99.90
2023-05-11T21:18:33.652Z,99.90
2023-05-11T21:21:01.479Z,99.90
2023-05-11T21:23:31.593Z,99.90
2023-05-11T21:26:00.130Z,99.90
2023-05-11T21:28:28.509Z,99.90
2023-05-11T21:30:57.655Z,99.90
2023-05-11T21:33:25.544Z,99.90
2023-05-11T21:35:53.703Z,99.90
2023-05-11T21:38:21.649Z,99.90
2023-05-11T21:40:53.282Z,99.90
2023-05-11T21:43:21.072Z,99.90
2023-05-11T21:45:50.566Z,99.90
2023-05-11T21:48:18.372Z,99.90
2023-05-11T21:50:46.334Z,99.90
2023-05-11T21:53:14.150Z,99.90
2023-05-11T21:55:41.866Z,99.90
2023-05-11T21:58:11.402Z,99.90
2023-05-11T22:00:39.209Z,99.90
2023-05-11T22:03:07.067Z,99.90
2023-05-11T22:05:34.842Z,99.90
2023-05-11T22:08:13.297Z,99.90
2023-05-11T22:10:43.232Z,99.90
2023-05-11T22:13:12.335Z,99.90
2023-05-11T22:15:40.066Z,99.90
2023-05-11T22:18:07.834Z,99.90
2023-05-11T22:20:35.771Z,99.90
2023-05-11T22:23:03.632Z,99.90
2023-05-11T22:25:31.941Z,99.90
2023-05-11T22:27:59.963Z,99.90
2023-05-11T22:30:29.042Z,99.90
2023-05-11T22:32:56.968Z,99.90
2023-05-11T22:35:25.048Z,99.90
2023-05-11T22:37:52.827Z,99.90
2023-05-11T22:40:20.794Z,99.90
2023-05-11T22:42:48.693Z,99.90
2023-05-11T22:45:16.481Z,99.90
2023-05-11T22:47:45.678Z,99.90
2023-05-11T22:50:13.401Z,99.90
2023-05-11T22:52:41.130Z,99.90
2023-05-11T22:55:10.428Z,99.90
2023-05-11T22:57:38.144Z,99.90
2023-05-11T23:00:09.506Z,99.90
2023-05-11T23:02:37.759Z,99.90
2023-05-11T23:05:08.107Z,99.90
2023-05-11T23:07:35.806Z,99.90
2023-05-11T23:10:03.535Z,99.90
2023-05-11T23:12:31.234Z,99.90
2023-05-11T23:14:59.207Z,99.90
2023-05-11T23:17:27.156Z,99.90
2023-05-11T23:19:54.888Z,99.90
2023-05-11T23:22:23.890Z,99.90
2023-05-11T23:24:51.875Z,99.90
2023-05-11T23:27:19.747Z,99.90
2023-05-11T23:29:48.860Z,99.90
2023-05-11T23:32:16.823Z,99.90
2023-05-11T23:34:44.502Z,99.90
2023-05-11T23:40:10.211Z,99.90
2023-05-11T23:42:38.082Z,99.90
2023-05-11T23:45:07.928Z,99.90
2023-05-11T23:47:36.361Z,99.90
2023-05-11T23:50:04.202Z,99.90
2023-05-11T23:52:31.882Z,99.90
2023-05-11T23:54:59.599Z,99.90
2023-05-11T23:57:28.615Z,99.90
2023-05-11T23:59:56.459Z,99.90
